createdAt,value
2022-10-12T00:00:12.657Z,98.16
2022-10-12T00:03:16.738Z,98.92
2022-10-12T00:06:21.073Z,98.78
2022-10-12T00:09:23.592Z,98.96
2022-10-12T00:12:26.238Z,99.30
2022-10-12T00:15:28.738Z,99.11
2022-10-12T00:18:33.037Z,99.01
2022-10-12T00:21:35.558Z,99.06
2022-10-12T00:24:42.144Z,98.23
2022-10-12T00:27:46.314Z,98.30
2022-10-12T00:30:48.802Z,98.92
2022-10-12T00:33:53.054Z,98.83
2022-10-12T00:36:56.825Z,99.07
2022-10-12T00:39:59.316Z,99.36
2022-10-12T00:43:01.769Z,98.93
2022-10-12T00:46:07.009Z,99.35
2022-10-12T00:49:17.462Z,99.50
2022-10-12T00:52:24.702Z,99.59
2022-10-12T00:55:31.057Z,100.00
2022-10-12T00:58:34.485Z,100.00
2022-10-12T01:01:39.323Z,100.00
2022-10-12T01:04:44.320Z,100.00
2022-10-12T01:07:47.033Z,100.00
2022-10-12T01:10:49.567Z,100.00
2022-10-12T01:13:52.516Z,100.00
2022-10-12T01:16:59.573Z,100.00
2022-10-12T01:20:26.558Z,100.00
2022-10-12T01:24:08.110Z,100.00
2022-10-12T01:27:26.229Z,100.00
2022-10-12T01:30:34.447Z,100.00
2022-10-12T01:33:40.490Z,100.00
2022-10-12T01:36:46.925Z,100.00
2022-10-12T01:39:54.625Z,100.00
2022-10-12T01:42:58.932Z,100.00
2022-10-12T01:46:08.588Z,100.00
2022-10-12T01:49:12.308Z,100.00
2022-10-12T01:52:27.343Z,100.00
2022-10-12T01:55:39.316Z,100.00
2022-10-12T01:58:55.935Z,100.00
2022-10-12T02:02:07.847Z,100.00
2022-10-12T02:05:15.750Z,100.00
2022-10-12T02:08:31.393Z,100.00
2022-10-12T02:11:38.755Z,100.00
2022-10-12T02:14:46.486Z,100.00
2022-10-12T02:17:53.599Z,100.00
2022-10-12T02:21:00.419Z,100.00
2022-10-12T02:24:07.241Z,100.00
2022-10-12T02:27:12.354Z,100.00
2022-10-12T02:30:15.039Z,100.00
2022-10-12T02:33:25.636Z,100.00
2022-10-12T02:36:36.788Z,100.00
2022-10-12T02:39:43.241Z,100.00
2022-10-12T02:46:18.125Z,100.00
2022-10-12T02:49:26.109Z,100.00
2022-10-12T02:52:28.869Z,100.00
2022-10-12T02:55:31.699Z,100.00
2022-10-12T02:58:34.266Z,100.00
2022-10-12T03:01:36.865Z,100.00
2022-10-12T03:04:40.845Z,100.00
2022-10-12T03:07:43.349Z,100.00
2022-10-12T03:10:45.896Z,100.00
2022-10-12T03:13:48.372Z,100.00
2022-10-12T03:16:50.881Z,100.00
2022-10-12T03:19:54.731Z,100.00
2022-10-12T03:22:57.237Z,100.00
2022-10-12T03:25:59.739Z,100.00
2022-10-12T03:29:02.277Z,100.00
2022-10-12T03:32:05.115Z,100.00
2022-10-12T03:35:10.102Z,100.00
2022-10-12T03:38:12.638Z,100.00
2022-10-12T03:41:15.210Z,100.00
2022-10-12T03:44:17.669Z,100.00
2022-10-12T03:47:20.173Z,100.00
2022-10-12T03:50:24.141Z,100.00
2022-10-12T03:53:26.664Z,100.00
2022-10-12T03:56:29.134Z,100.00
2022-10-12T03:59:31.634Z,100.00
2022-10-12T04:02:34.142Z,100.00
2022-10-12T04:05:37.994Z,100.00
2022-10-12T04:08:40.508Z,100.00
2022-10-12T04:11:42.986Z,100.00
2022-10-12T04:14:45.523Z,100.00
2022-10-12T04:17:48.160Z,100.00
2022-10-12T04:20:52.015Z,100.00
2022-10-12T04:23:54.557Z,100.00
2022-10-12T04:26:57.046Z,100.00
2022-10-12T04:29:59.537Z,100.00
2022-10-12T04:33:02.016Z,100.00
2022-10-12T04:36:06.237Z,100.00
2022-10-12T04:39:09.332Z,100.00
2022-10-12T04:42:11.834Z,100.00
2022-10-12T04:45:14.600Z,100.00
2022-10-12T04:48:17.132Z,100.00
2022-10-12T04:51:21.072Z,100.00
2022-10-12T04:54:23.567Z,100.00
2022-10-12T04:57:26.097Z,100.00
2022-10-12T05:00:28.662Z,100.00
2022-10-12T05:03:31.192Z,100.00
2022-10-12T05:06:35.034Z,100.00
2022-10-12T05:09:37.513Z,100.00
2022-10-12T05:12:40.411Z,100.00
2022-10-12T05:15:43.637Z,100.00
2022-10-12T05:18:46.129Z,100.00
2022-10-12T05:21:49.962Z,100.00
2022-10-12T05:24:53.921Z,100.00
2022-10-12T05:27:57.051Z,100.00
2022-10-12T05:30:59.537Z,100.00
2022-10-12T05:34:02.026Z,100.00
2022-10-12T05:37:06.041Z,100.00
2022-10-12T05:40:09.123Z,100.00
2022-10-12T05:43:11.629Z,100.00
2022-10-12T05:46:14.671Z,100.00
2022-10-12T05:49:17.234Z,100.00
2022-10-12T05:52:21.182Z,100.00
2022-10-12T05:55:23.664Z,100.00
2022-10-12T05:58:26.746Z,100.00
2022-10-12T06:01:29.295Z,100.00
2022-10-12T06:04:31.788Z,100.00
2022-10-12T06:07:35.644Z,100.00
2022-10-12T06:10:38.676Z,100.00
2022-10-12T06:13:41.280Z,100.00
2022-10-12T06:16:43.754Z,100.00
2022-10-12T06:19:46.337Z,100.00
2022-10-12T06:22:50.168Z,100.00
2022-10-12T06:25:53.132Z,100.00
2022-10-12T06:28:55.761Z,100.00
2022-10-12T06:31:58.398Z,100.00
2022-10-12T06:35:00.883Z,100.00
2022-10-12T06:38:04.733Z,100.00
2022-10-12T06:41:07.225Z,100.00
2022-10-12T06:44:09.869Z,100.00
2022-10-12T06:47:12.406Z,100.00
2022-10-12T06:50:14.914Z,100.00
2022-10-12T06:53:19.419Z,100.00
2022-10-12T06:56:22.067Z,100.00
2022-10-12T06:59:24.869Z,100.00
2022-10-12T07:02:27.337Z,100.00
2022-10-12T07:05:29.901Z,100.00
2022-10-12T07:08:33.842Z,100.00
2022-10-12T07:11:36.502Z,100.00
2022-10-12T07:14:38.978Z,100.00
2022-10-12T07:17:41.526Z,100.00
2022-10-12T07:20:44.062Z,100.00
2022-10-12T07:23:47.910Z,100.00
2022-10-12T07:26:50.781Z,100.00
2022-10-12T07:29:53.310Z,100.00
2022-10-12T07:32:55.861Z,100.00
2022-10-12T07:36:13.207Z,100.00
2022-10-12T07:39:17.530Z,100.00
2022-10-12T07:42:19.993Z,100.00
2022-10-12T07:45:22.769Z,100.00
2022-10-12T07:48:25.304Z,100.00
2022-10-12T07:51:27.969Z,100.00
2022-10-12T07:54:32.742Z,100.00
2022-10-12T07:57:35.451Z,100.00
2022-10-12T08:00:37.974Z,100.00
2022-10-12T08:03:40.561Z,100.00
2022-10-12T08:06:44.513Z,100.00
2022-10-12T08:09:49.388Z,100.00
2022-10-12T08:12:52.435Z,100.00
2022-10-12T08:15:54.970Z,100.00
2022-10-12T08:18:57.473Z,99.19
2022-10-12T08:21:59.995Z,99.73
2022-10-12T08:25:03.916Z,100.00
2022-10-12T08:28:06.875Z,97.89
2022-10-12T08:31:11.161Z,97.99
2022-10-12T08:34:13.725Z,92.07
2022-10-12T08:37:16.233Z,94.97
2022-10-12T08:40:29.850Z,91.41
2022-10-12T08:43:47.316Z,95.20
2022-10-12T08:46:50.953Z,96.40
2022-10-12T08:49:55.162Z,94.75
2022-10-12T08:53:05.839Z,92.95
2022-10-12T08:56:10.056Z,87.91
2022-10-12T08:59:14.298Z,86.33
2022-10-12T09:02:34.355Z,88.30
2022-10-12T09:05:43.578Z,85.84
2022-10-12T09:09:02.311Z,84.16
2022-10-12T09:12:24.612Z,81.19
2022-10-12T09:15:31.461Z,79.64
2022-10-12T09:18:41.234Z,79.29
2022-10-12T09:21:46.762Z,76.27
2022-10-12T09:24:50.941Z,81.62
2022-10-12T09:27:57.032Z,78.25
2022-10-12T09:31:12.553Z,76.56
2022-10-12T09:34:18.989Z,74.55
2022-10-12T09:37:25.671Z,74.61
2022-10-12T09:40:32.094Z,70.90
2022-10-12T09:43:35.971Z,70.95
2022-10-12T09:46:43.543Z,68.76
2022-10-12T09:49:47.863Z,68.08
2022-10-12T09:52:52.938Z,67.22
2022-10-12T09:55:59.555Z,64.11
2022-10-12T09:59:06.405Z,64.47
2022-10-12T10:02:16.302Z,60.41
2022-10-12T10:05:25.733Z,62.72
2022-10-12T10:08:28.201Z,60.75
2022-10-12T10:11:32.434Z,59.93
2022-10-12T10:14:36.959Z,54.24
2022-10-12T10:17:39.889Z,54.57
2022-10-12T10:20:51.271Z,52.33
2022-10-12T10:23:56.489Z,51.66
2022-10-12T10:27:01.880Z,48.43
2022-10-12T10:30:29.778Z,46.21
2022-10-12T10:33:35.911Z,47.34
2022-10-12T10:36:41.696Z,45.68
2022-10-12T10:39:47.451Z,45.00
2022-10-12T10:42:52.481Z,44.08
2022-10-12T10:45:59.279Z,44.20
2022-10-12T10:49:06.838Z,41.82
2022-10-12T10:52:20.500Z,43.79
2022-10-12T10:55:27.782Z,42.37
2022-10-12T10:58:35.468Z,40.53
2022-10-12T11:01:51.338Z,38.22
2022-10-12T11:05:02.031Z,39.37
2022-10-12T11:08:12.061Z,36.81
2022-10-12T11:11:17.282Z,37.83
2022-10-12T11:14:23.050Z,35.76
2022-10-12T11:17:31.973Z,37.11
2022-10-12T11:20:51.031Z,37.23
2022-10-12T11:23:59.400Z,35.10
2022-10-12T11:27:07.401Z,36.59
2022-10-12T11:30:15.710Z,37.28
2022-10-12T11:33:24.522Z,38.20
2022-10-12T11:36:30.642Z,39.93
2022-10-12T11:39:37.098Z,40.63
2022-10-12T11:42:43.793Z,38.19
2022-10-12T11:45:50.426Z,39.09
2022-10-12T11:49:00.477Z,37.61
2022-10-12T11:52:09.711Z,36.53
2022-10-12T11:55:42.853Z,35.22
2022-10-12T11:59:02.940Z,36.83
2022-10-12T12:02:15.715Z,35.08
2022-10-12T12:05:19.633Z,35.85
2022-10-12T12:08:23.846Z,38.93
2022-10-12T12:11:28.685Z,41.37
2022-10-12T12:14:49.122Z,44.16
2022-10-12T12:18:14.401Z,43.45
2022-10-12T12:21:18.274Z,42.07
2022-10-12T12:24:20.875Z,43.24
2022-10-12T12:27:29.904Z,40.60
2022-10-12T12:30:39.564Z,40.66
2022-10-12T12:33:45.980Z,40.06
2022-10-12T12:36:51.532Z,38.44
2022-10-12T12:39:57.895Z,36.94
2022-10-12T12:43:35.185Z,34.86
2022-10-12T12:47:43.975Z,35.11
2022-10-12T12:50:41.719Z,35.69
2022-10-12T12:53:50.647Z,33.18
2022-10-12T12:57:25.823Z,34.46
2022-10-12T13:00:38.174Z,33.34
2022-10-12T13:04:05.545Z,33.10
2022-10-12T13:07:34.287Z,33.73
2022-10-12T13:10:52.616Z,35.75
2022-10-12T13:14:07.710Z,35.66
2022-10-12T13:17:34.148Z,34.82
2022-10-12T13:20:40.038Z,32.80
2022-10-12T13:23:45.689Z,34.03
2022-10-12T13:26:52.415Z,33.20
2022-10-12T13:29:59.030Z,35.08
2022-10-12T13:33:09.227Z,33.61
2022-10-12T13:36:26.466Z,34.91
2022-10-12T13:39:29.904Z,38.83
2022-10-12T13:42:35.799Z,37.68
2022-10-12T13:45:45.295Z,41.97
2022-10-12T13:49:05.465Z,41.65
2022-10-12T13:52:21.624Z,42.65
2022-10-12T13:55:28.554Z,45.73
2022-10-12T13:58:35.330Z,46.11
2022-10-12T14:01:49.324Z,47.04
2022-10-12T14:04:54.487Z,46.65
2022-10-12T14:08:00.036Z,49.20
2022-10-12T14:11:05.266Z,48.63
2022-10-12T14:14:19.874Z,50.51
2022-10-12T14:17:22.805Z,48.65
2022-10-12T14:20:31.629Z,51.36
2022-10-12T14:23:34.199Z,49.53
2022-10-12T14:26:40.527Z,55.77
2022-10-12T14:29:46.433Z,53.57
2022-10-12T14:32:49.831Z,54.01
2022-10-12T14:35:53.221Z,51.63
2022-10-12T14:39:00.252Z,53.16
2022-10-12T14:42:05.724Z,51.98
2022-10-12T14:45:24.152Z,55.65
2022-10-12T14:48:26.638Z,58.07
2022-10-12T14:51:29.589Z,59.29
2022-10-12T14:54:32.101Z,54.61
2022-10-12T14:57:34.573Z,58.75
2022-10-12T15:00:39.297Z,59.13
2022-10-12T15:03:41.761Z,57.41
2022-10-12T15:06:49.757Z,58.62
2022-10-12T15:09:53.724Z,60.94
2022-10-12T15:12:56.280Z,57.03
2022-10-12T15:16:02.124Z,56.75
2022-10-12T15:19:04.592Z,58.98
2022-10-12T15:22:07.649Z,62.06
2022-10-12T15:25:18.528Z,59.12
2022-10-12T15:28:21.753Z,60.46
2022-10-12T15:31:25.652Z,61.81
2022-10-12T15:34:28.489Z,64.26
2022-10-12T15:37:31.986Z,64.51
2022-10-12T15:40:35.430Z,64.57
2022-10-12T15:43:39.738Z,65.49
2022-10-12T15:46:46.069Z,66.45
2022-10-12T15:49:48.524Z,66.78
2022-10-12T15:52:51.706Z,68.62
2022-10-12T15:55:55.649Z,67.53
2022-10-12T15:58:58.250Z,68.04
2022-10-12T16:02:02.113Z,68.76
2022-10-12T16:05:05.217Z,69.29
2022-10-12T16:08:07.850Z,69.62
2022-10-12T16:11:13.698Z,70.97
2022-10-12T16:14:16.338Z,71.66
2022-10-12T16:17:20.153Z,72.79
2022-10-12T16:20:23.229Z,73.79
2022-10-12T16:23:29.101Z,74.24
2022-10-12T16:26:31.656Z,75.82
2022-10-12T16:29:34.158Z,76.07
2022-10-12T16:32:38.047Z,75.71
2022-10-12T16:35:41.023Z,76.00
2022-10-12T16:38:44.429Z,76.64
2022-10-12T16:41:46.895Z,76.74
2022-10-12T16:44:49.521Z,77.81
2022-10-12T16:47:53.967Z,78.23
2022-10-12T16:50:56.444Z,78.64
2022-10-12T16:53:58.930Z,78.91
2022-10-12T16:57:01.605Z,79.25
2022-10-12T17:00:05.463Z,78.74
2022-10-12T17:03:09.314Z,79.85
2022-10-12T17:06:12.166Z,80.34
2022-10-12T17:09:15.343Z,80.79
2022-10-12T17:12:18.378Z,80.70
2022-10-12T17:15:21.121Z,81.42
2022-10-12T17:18:24.942Z,81.51
2022-10-12T17:21:28.453Z,80.99
2022-10-12T17:24:32.945Z,81.79
2022-10-12T17:27:35.415Z,82.71
2022-10-12T17:30:38.783Z,82.51
2022-10-12T17:33:42.695Z,83.28
2022-10-12T17:36:45.198Z,83.69
2022-10-12T17:39:48.275Z,83.79
2022-10-12T17:42:50.745Z,84.18
2022-10-12T17:45:53.240Z,82.84
2022-10-12T17:48:59.171Z,83.81
2022-10-12T17:52:01.944Z,83.86
2022-10-12T17:55:04.758Z,84.23
2022-10-12T17:58:07.361Z,83.91
2022-10-12T18:01:12.462Z,83.99
2022-10-12T18:04:16.464Z,83.92
2022-10-12T18:07:19.166Z,84.89
2022-10-12T18:10:24.744Z,84.89
2022-10-12T18:13:31.404Z,85.41
2022-10-12T18:16:34.909Z,84.32
2022-10-12T18:19:38.793Z,84.18
2022-10-12T18:22:41.269Z,84.44
2022-10-12T18:25:46.308Z,85.28
2022-10-12T18:28:49.663Z,84.99
2022-10-12T18:31:53.024Z,85.09
2022-10-12T18:34:56.850Z,85.17
2022-10-12T18:37:59.330Z,85.55
2022-10-12T18:41:05.322Z,85.19
2022-10-12T18:44:09.043Z,85.74
2022-10-12T18:47:11.628Z,85.56
2022-10-12T18:50:15.471Z,85.57
2022-10-12T18:53:17.999Z,85.06
2022-10-12T18:56:20.934Z,84.70
2022-10-12T18:59:23.413Z,85.52
2022-10-12T19:02:25.895Z,85.77
2022-10-12T19:05:30.569Z,85.30
2022-10-12T19:08:33.154Z,85.20
2022-10-12T19:11:36.738Z,85.01
2022-10-12T19:14:39.242Z,85.05
2022-10-12T19:17:41.727Z,85.02
2022-10-12T19:20:45.538Z,85.24
2022-10-12T19:23:48.170Z,85.46
2022-10-12T19:26:50.695Z,84.66
2022-10-12T19:29:53.228Z,84.71
2022-10-12T19:32:55.702Z,85.02
2022-10-12T19:35:59.532Z,84.96
2022-10-12T19:39:04.816Z,85.08
2022-10-12T19:42:07.308Z,85.07
2022-10-12T19:45:10.579Z,84.92
2022-10-12T19:48:13.199Z,84.70
2022-10-12T19:51:18.114Z,85.36
2022-10-12T19:54:20.662Z,85.14
2022-10-12T19:57:23.669Z,84.77
2022-10-12T20:00:26.195Z,85.38
2022-10-12T20:03:28.877Z,84.98
2022-10-12T20:06:33.091Z,84.79
2022-10-12T20:09:35.603Z,85.38
2022-10-12T20:12:38.411Z,84.67
2022-10-12T20:15:40.898Z,85.06
2022-10-12T20:18:43.431Z,84.49
2022-10-12T20:21:47.275Z,85.13
2022-10-12T20:24:49.759Z,85.70
2022-10-12T20:27:52.256Z,85.74
2022-10-12T20:31:00.080Z,85.92
2022-10-12T20:34:02.592Z,85.64
2022-10-12T20:37:06.406Z,85.80
2022-10-12T20:40:09.966Z,85.50
2022-10-12T20:43:12.554Z,86.27
2022-10-12T20:46:17.047Z,85.77
2022-10-12T20:49:19.757Z,85.36
2022-10-12T20:52:23.553Z,86.20
2022-10-12T20:55:26.399Z,85.67
2022-10-12T20:58:28.874Z,85.59
2022-10-12T21:01:31.387Z,84.98
2022-10-12T21:04:38.284Z,85.44
2022-10-12T21:07:42.278Z,85.33
2022-10-12T21:10:47.295Z,85.07
2022-10-12T21:13:50.492Z,85.43
2022-10-12T21:16:53.149Z,84.59
2022-10-12T21:19:55.629Z,84.76
2022-10-12T21:22:59.481Z,84.74
2022-10-12T21:26:10.036Z,84.30
2022-10-12T21:29:12.868Z,84.18
2022-10-12T21:32:15.904Z,84.22
2022-10-12T21:35:18.581Z,84.42
2022-10-12T21:38:22.380Z,84.18
2022-10-12T21:41:28.185Z,84.02
2022-10-12T21:44:30.745Z,84.03
2022-10-12T21:47:33.429Z,83.87
2022-10-12T21:50:35.909Z,84.30
2022-10-12T21:53:40.978Z,83.83
2022-10-12T21:56:44.058Z,82.91
2022-10-12T21:59:48.974Z,82.72
2022-10-12T22:02:51.529Z,83.51
2022-10-12T22:05:54.027Z,84.00
2022-10-12T22:08:59.961Z,82.75
2022-10-12T22:12:02.439Z,83.46
2022-10-12T22:15:05.397Z,83.84
2022-10-12T22:18:07.885Z,83.81
2022-10-12T22:21:12.943Z,83.84
2022-10-12T22:24:16.817Z,84.09
2022-10-12T22:27:19.306Z,83.00
2022-10-12T22:30:21.825Z,81.82
2022-10-12T22:33:24.626Z,82.43
2022-10-12T22:36:27.372Z,83.02
2022-10-12T22:39:31.315Z,83.19
2022-10-12T22:42:33.801Z,83.03
2022-10-12T22:45:36.280Z,83.21
2022-10-12T22:48:39.242Z,83.55
2022-10-12T22:51:41.756Z,83.26
2022-10-12T22:54:45.888Z,83.20
2022-10-12T22:57:48.361Z,84.01
2022-10-12T23:00:50.868Z,83.13
2022-10-12T23:03:54.897Z,83.45
2022-10-12T23:06:57.384Z,81.87
2022-10-12T23:10:01.610Z,83.87
2022-10-12T23:13:04.105Z,83.49
2022-10-12T23:16:08.835Z,83.51
2022-10-12T23:19:11.449Z,84.01
2022-10-12T23:22:13.920Z,83.74
2022-10-12T23:25:18.222Z,83.50
2022-10-12T23:28:20.727Z,84.53
2022-10-12T23:31:24.812Z,82.65
2022-10-12T23:34:27.541Z,84.72
2022-10-12T23:37:30.462Z,84.51
2022-10-12T23:40:35.918Z,84.27
2022-10-12T23:43:38.527Z,84.18
2022-10-12T23:46:41.035Z,83.30
2022-10-12T23:49:44.462Z,84.71
2022-10-12T23:52:46.969Z,84.61
2022-10-12T23:55:52.350Z,84.34
2022-10-12T23:58:55.038Z,83.76
